Time;durP1;ratioP1;P1;durP2;ratioP2;P2;SDS_P1;SDS_P2;PMS_P1;PMS_P2;Temp;Humidity;BMP_temperature;BMP_pressure;BME280_temperature;BME280_humidity;BME280_pressure;Samples;Min_cycle;Max_cycle;Signal;HPM_P1;HPM_P2
2023/07/05 00:01:37;;;;;;;10.13;7.00;;;16.80;1.00;;;;;;6177846;23;20441;-89
2023/07/05 00:04:06;;;;;;;8.77;7.27;;;;;;;;;;6176066;23;20740;-89
2023/07/05 00:06:33;;;;;;;13.20;7.87;;;;;;;;;;6179673;23;20408;-90
2023/07/05 00:09:00;;;;;;;15.37;7.13;;;;;;;;;;6178381;23;20425;-89
2023/07/05 00:11:28;;;;;;;11.50;8.07;;;;;;;;;;6182169;23;20419;-89
2023/07/05 00:13:58;;;;;;;7.30;6.60;;;;;;;;;;6175057;23;20429;-89
2023/07/05 00:16:26;;;;;;;8.23;6.70;;;;;;;;;;6173598;23;20482;-90
2023/07/05 00:18:56;;;;;;;14.70;7.87;;;15.80;1.00;;;;;;6172554;23;20453;-90
2023/07/05 00:21:26;;;;;;;13.47;7.17;;;15.90;1.00;;;;;;6172596;23;20438;-90
2023/07/05 00:23:57;;;;;;;12.20;8.30;;;;;;;;;;6169737;23;20462;-90
2023/07/05 00:26:29;;;;;;;12.83;8.03;;;;;;;;;;6181352;23;20474;-90
2023/07/05 00:28:58;;;;;;;9.10;7.73;;;15.70;1.00;;;;;;6172007;23;20415;-91
2023/07/05 00:31:29;;;;;;;9.40;7.13;;;15.70;1.00;;;;;;6166619;23;20382;-91
2023/07/05 00:34:04;;;;;;;9.53;8.63;;;15.70;1.00;;;;;;6166320;23;20509;-91
2023/07/05 00:36:33;;;;;;;12.03;7.43;;;;;;;;;;6170998;23;20429;-91
2023/07/05 00:39:01;;;;;;;11.00;7.40;;;;;;;;;;6181905;23;20418;-91
2023/07/05 00:41:28;;;;;;;10.07;7.60;;;;;;;;;;6167834;23;20435;-90
2023/07/05 00:43:57;;;;;;;12.30;8.20;;;15.60;99.90;;;;;;6166418;23;20444;-91
2023/07/05 00:46:29;;;;;;;8.50;7.13;;;15.50;1.00;;;;;;6172770;23;20409;-89
2023/07/05 00:49:06;;;;;;;11.90;7.87;;;15.60;1.00;;;;;;6184889;23;20406;-89
2023/07/05 00:51:40;;;;;;;14.00;7.67;;;15.50;1.00;;;;;;6184742;23;20392;-88
2023/07/05 00:54:07;;;;;;;8.33;6.40;;;15.50;1.00;;;;;;6183649;23;20445;-90
2023/07/05 00:56:40;;;;;;;8.50;6.77;;;15.40;1.00;;;;;;6182847;23;20422;-91
2023/07/05 00:59:10;;;;;;;11.10;7.03;;;15.50;1.00;;;;;;6182825;23;20396;-89
2023/07/05 01:01:37;;;;;;;12.73;7.70;;;;;;;;;;6177787;23;20445;-89
2023/07/05 01:04:06;;;;;;;10.80;7.70;;;15.60;1.00;;;;;;6179383;23;20426;-89
2023/07/05 01:06:33;;;;;;;8.37;6.90;;;;;;;;;;6176195;23;20417;-89
2023/07/05 01:09:01;;;;;;;7.87;7.00;;;;;;;;;;6170299;23;20510;-89
2023/07/05 01:11:35;;;;;;;12.73;7.60;;;15.70;1.00;;;;;;6183417;23;20402;-88
2023/07/05 01:14:11;;;;;;;10.03;6.73;;;15.70;1.00;;;;;;6184467;23;20450;-88
2023/07/05 01:16:56;;;;;;;7.77;6.90;;;15.60;1.00;;;;;;6181390;23;20470;-89
2023/07/05 01:19:58;;;;;;;8.83;7.43;;;15.60;1.00;;;;;;6180459;23;20407;-89
2023/07/05 01:22:48;;;;;;;9.70;7.13;;;15.70;1.00;;;;;;6167090;23;20425;-89
2023/07/05 01:25:32;;;;;;;9.33;6.47;;;13.80;1.00;;;;;;6184051;23;20390;-89
2023/07/05 01:28:29;;;;;;;8.30;6.97;;;15.80;1.00;;;;;;6184640;23;20388;-88
2023/07/05 01:31:16;;;;;;;10.90;6.67;;;15.80;1.00;;;;;;6184719;23;20358;-89
2023/07/05 01:33:51;;;;;;;7.87;7.07;;;15.90;1.00;;;;;;6181694;23;20468;-89
2023/07/05 01:36:19;;;;;;;10.77;6.70;;;15.90;1.00;;;;;;6173931;23;20437;-90
2023/07/05 01:38:46;;;;;;;9.37;6.87;;;15.90;1.00;;;;;;6169661;23;20406;-89
2023/07/05 01:41:14;;;;;;;9.07;6.67;;;;;;;;;;6166229;23;20450;-89
2023/07/05 01:43:45;;;;;;;9.80;6.53;;;15.90;1.00;;;;;;6167672;23;20822;-89
2023/07/05 01:46:28;;;;;;;12.13;6.23;;;15.60;99.90;;;;;;6175212;23;20453;-89
2023/07/05 01:49:23;;;;;;;6.90;6.30;;;16.00;1.00;;;;;;6180409;23;20390;-88
2023/07/05 01:51:57;;;;;;;7.50;6.47;;;16.00;1.00;;;;;;6177082;23;20399;-88
2023/07/05 01:54:33;;;;;;;9.43;6.17;;;16.00;1.00;;;;;;6173914;23;20426;-90
2023/07/05 01:57:05;;;;;;;8.40;6.77;;;15.90;1.00;;;;;;6166261;23;20498;-91
2023/07/05 01:59:43;;;;;;;6.83;5.67;;;15.90;1.00;;;;;;6164314;23;20379;-91
2023/07/05 02:02:13;;;;;;;7.27;5.43;;;15.90;1.00;;;;;;6165656;23;20441;-90
2023/07/05 02:04:46;;;;;;;9.80;6.50;;;15.90;1.00;;;;;;6180558;23;20379;-90
2023/07/05 02:07:13;;;;;;;6.83;6.23;;;;;;;;;;6175210;23;20409;-91
2023/07/05 02:09:42;;;;;;;7.37;6.60;;;15.80;1.00;;;;;;6183654;23;20519;-89
2023/07/05 02:12:11;;;;;;;7.47;6.10;;;15.60;1.00;;;;;;6164602;23;20412;-90
2023/07/05 02:14:38;;;;;;;7.87;5.60;;;15.80;1.00;;;;;;6163148;23;20509;-90
2023/07/05 02:17:07;;;;;;;7.17;6.30;;;;;;;;;;6163334;23;20449;-91
2023/07/05 02:19:34;;;;;;;8.67;5.47;;;15.80;1.00;;;;;;6162736;23;20478;-90
2023/07/05 02:22:02;;;;;;;9.10;6.30;;;15.90;1.00;;;;;;6163169;23;20452;-90
2023/07/05 02:24:33;;;;;;;7.77;5.37;;;;;;;;;;6163794;23;20430;-91
2023/07/05 02:27:00;;;;;;;12.73;5.97;;;;;;;;;;6173440;23;20451;-88
2023/07/05 02:29:30;;;;;;;13.47;6.23;;;;;;;;;;6184096;23;20413;-88
2023/07/05 02:31:57;;;;;;;7.67;5.77;;;;;;;;;;6184244;23;20408;-88
2023/07/05 02:34:25;;;;;;;8.27;6.50;;;;;;;;;;6180092;23;20754;-89
2023/07/05 02:36:54;;;;;;;7.47;5.73;;;;;;;;;;6177541;23;20790;-89
2023/07/05 02:39:22;;;;;;;9.80;5.27;;;15.70;1.00;;;;;;6178560;23;20407;-88
2023/07/05 02:41:49;;;;;;;6.10;5.50;;;;;;;;;;6167649;23;20446;-88
2023/07/05 02:44:17;;;;;;;7.97;6.00;;;;;;;;;;6169114;23;20429;-89
2023/07/05 02:46:44;;;;;;;6.23;5.20;;;;;;;;;;6164258;23;20456;-89
2023/07/05 02:49:12;;;;;;;12.63;6.40;;;15.80;1.00;;;;;;6161758;23;20431;-90
2023/07/05 02:51:40;;;;;;;9.67;6.00;;;;;;;;;;6160276;23;20397;-89
2023/07/05 02:54:08;;;;;;;10.87;6.33;;;15.70;1.00;;;;;;6171291;23;20437;-89
2023/07/05 02:56:37;;;;;;;6.40;5.27;;;15.70;1.00;;;;;;6181301;23;20393;-90
2023/07/05 02:59:09;;;;;;;7.90;5.30;;;;;;;;;;6183661;23;20424;-86
2023/07/05 03:01:37;;;;;;;7.63;5.53;;;;;;;;;;6183465;23;20500;-89
2023/07/05 03:04:13;;;;;;;6.80;6.00;;;15.60;1.00;;;;;;6183468;23;20437;-89
2023/07/05 03:06:44;;;;;;;6.30;5.70;;;15.60;1.00;;;;;;6177680;23;20467;-90
2023/07/05 03:09:14;;;;;;;8.63;6.30;;;15.60;1.00;;;;;;6166545;23;20413;-90
2023/07/05 03:12:08;;;;;;;11.57;6.53;;;15.50;1.00;;;;;;6165765;23;20937;-90
2023/07/05 03:14:42;;;;;;;15.43;6.47;;;15.60;1.00;;;;;;6165608;23;20422;-90
2023/07/05 03:17:25;;;;;;;10.57;7.97;;;;;;;;;;6167541;23;20434;-90
2023/07/05 03:20:09;;;;;;;17.37;10.53;;;15.60;50.00;;;;;;6160717;23;20416;-90
2023/07/05 03:22:41;;;;;;;20.00;10.53;;;;;;;;;;6168274;23;20448;-89
2023/07/05 03:25:09;;;;;;;19.30;12.70;;;;;;;;;;6167011;23;20406;-89
2023/07/05 03:27:38;;;;;;;19.97;12.87;;;15.70;1.00;;;;;;6166938;23;20405;-90
2023/07/05 03:30:16;;;;;;;16.00;10.20;;;15.70;1.00;;;;;;6167564;23;20894;-90
2023/07/05 03:32:44;;;;;;;16.20;9.50;;;;;;;;;;6169035;23;20437;-89
2023/07/05 03:35:14;;;;;;;13.67;7.70;;;;;;;;;;6166163;23;20421;-89
2023/07/05 03:37:55;;;;;;;9.67;7.73;;;15.70;1.00;;;;;;6167486;23;20502;-90
2023/07/05 03:40:24;;;;;;;9.17;7.20;;;;;;;;;;6167519;23;20718;-90
2023/07/05 03:42:56;;;;;;;11.50;6.27;;;15.80;1.00;;;;;;6160515;23;20455;-88
2023/07/05 03:45:23;;;;;;;8.57;5.70;;;;;;;;;;6159822;23;20467;-89
2023/07/05 03:47:53;;;;;;;7.90;5.20;;;;;;;;;;6160458;23;20798;-89
2023/07/05 03:50:25;;;;;;;9.03;5.50;;;15.70;1.00;;;;;;6159875;23;20477;-89
2023/07/05 03:52:56;;;;;;;9.70;6.87;;;;;;;;;;6160918;23;20434;-88
2023/07/05 03:55:24;;;;;;;6.73;6.13;;;;;;;;;;6161736;23;20441;-89
2023/07/05 03:57:56;;;;;;;6.57;5.40;;;;;;;;;;6162605;23;20896;-89
2023/07/05 04:03:18;;;;;;;7.23;5.40;;;;;;;;;;6163077;23;20917;-90
2023/07/05 04:05:45;;;;;;;8.30;5.57;;;;;;;;;;6160414;23;20866;-89
2023/07/05 04:08:13;;;;;;;6.97;6.10;;;;;;;;;;6162688;23;20409;-89
2023/07/05 04:10:47;;;;;;;7.47;6.67;;;16.10;1.00;;;;;;6165507;23;20413;-90
2023/07/05 04:13:14;;;;;;;6.93;6.17;;;;;;;;;;6164843;23;20434;-90
2023/07/05 04:15:46;;;;;;;7.20;5.70;;;16.10;1.00;;;;;;6160397;23;20389;-90
2023/07/05 04:18:13;;;;;;;9.57;6.63;;;;;;;;;;6160489;23;20235;-90
2023/07/05 04:20:41;;;;;;;12.00;6.37;;;;;;;;;;6162877;23;20405;-90
2023/07/05 04:23:11;;;;;;;8.47;5.63;;;;;;;;;;6183716;23;20491;-88
2023/07/05 04:25:38;;;;;;;8.70;6.53;;;;;;;;;;6185119;23;20402;-88
2023/07/05 04:28:09;;;;;;;7.30;5.40;;;16.20;1.00;;;;;;6180897;23;20406;-89
2023/07/05 04:30:36;;;;;;;8.70;6.00;;;;;;;;;;6170212;23;20413;-89
2023/07/05 04:33:05;;;;;;;11.83;9.13;;;16.30;1.00;;;;;;6168451;23;20427;-89
2023/07/05 04:35:32;;;;;;;10.27;6.97;;;;;;;;;;6167671;23;20912;-89
2023/07/05 04:37:59;;;;;;;8.20;5.60;;;;;;;;;;6178105;23;20409;-88
2023/07/05 04:40:26;;;;;;;6.80;5.77;;;16.30;1.00;;;;;;6172622;23;20397;-90
2023/07/05 04:42:53;;;;;;;8.27;5.83;;;12.00;1.00;;;;;;6163325;23;20451;-90
2023/07/05 04:45:20;;;;;;;5.97;5.43;;;;;;;;;;6161245;23;20514;-90
2023/07/05 04:47:47;;;;;;;6.33;5.30;;;;;;;;;;6161120;23;20735;-90
2023/07/05 04:50:16;;;;;;;6.53;5.30;;;16.60;1.00;;;;;;6164811;23;20410;-90
2023/07/05 04:52:43;;;;;;;7.93;5.70;;;;;;;;;;6162200;23;20818;-90
2023/07/05 04:55:10;;;;;;;11.40;5.33;;;16.70;1.00;;;;;;6174567;23;20427;-89
2023/07/05 04:57:36;;;;;;;5.83;5.30;;;16.70;1.00;;;;;;6184469;23;20451;-88
2023/07/05 05:00:06;;;;;;;9.30;5.30;;;16.60;1.00;;;;;;6184654;23;20398;-89
2023/07/05 05:02:33;;;;;;;6.03;5.33;;;17.10;99.90;;;;;;6184322;23;20493;-88
2023/07/05 05:05:00;;;;;;;7.87;5.87;;;17.10;1.00;;;;;;6184434;23;20398;-87
2023/07/05 05:07:28;;;;;;;14.17;6.60;;;17.10;1.00;;;;;;6184619;23;20384;-87
2023/07/05 05:09:56;;;;;;;10.33;5.13;;;17.10;1.00;;;;;;6184477;23;20412;-88
2023/07/05 05:12:23;;;;;;;9.63;5.57;;;17.40;1.00;;;;;;6172131;23;20969;-89
2023/07/05 05:14:50;;;;;;;15.40;6.40;;;;;;;;;;6165120;23;20470;-89
2023/07/05 05:17:17;;;;;;;8.57;6.63;;;17.20;1.00;;;;;;6179962;23;20391;-88
2023/07/05 05:19:44;;;;;;;8.10;5.43;;;17.30;1.00;;;;;;6184368;23;20406;-88
2023/07/05 05:22:12;;;;;;;8.53;5.67;;;17.20;1.00;;;;;;6180889;23;20486;-90
2023/07/05 05:24:40;;;;;;;7.03;5.60;;;17.60;1.00;;;;;;6161273;23;20482;-90
2023/07/05 05:27:07;;;;;;;10.07;6.07;;;17.40;1.00;;;;;;6161704;23;20423;-89
2023/07/05 05:29:34;;;;;;;7.67;5.70;;;17.60;1.00;;;;;;6162584;23;20412;-89
2023/07/05 05:32:01;;;;;;;6.30;5.43;;;17.90;1.00;;;;;;6160292;23;20418;-89
2023/07/05 05:34:29;;;;;;;10.83;6.13;;;17.60;1.00;;;;;;6161118;23;20428;-90
2023/07/05 05:36:55;;;;;;;10.43;5.60;;;17.70;1.00;;;;;;6160707;23;20495;-90
2023/07/05 05:39:39;;;;;;;9.20;7.07;;;17.80;1.00;;;;;;6168855;23;20467;-89
2023/07/05 05:42:07;;;;;;;10.10;6.40;;;17.80;99.90;;;;;;6161107;23;20450;-90
2023/07/05 05:44:34;;;;;;;10.30;5.70;;;17.80;99.90;;;;;;6162083;23;20436;-90
2023/07/05 05:47:01;;;;;;;9.10;5.40;;;17.90;99.90;;;;;;6176013;23;20428;-89
2023/07/05 05:49:28;;;;;;;6.40;5.63;;;;;;;;;;6183401;23;20400;-87
2023/07/05 05:51:55;;;;;;;7.83;5.40;;;18.90;99.90;;;;;;6173604;23;20503;-89
2023/07/05 05:54:22;;;;;;;12.53;6.30;;;18.40;99.90;;;;;;6164638;23;20440;-89
2023/07/05 06:02:11;;;;;;;7.90;5.60;;;;;;;;;;6171607;23;20442;-93
2023/07/05 06:04:43;;;;;;;8.57;6.13;;;;;;;;;;6179469;23;20412;-93
2023/07/05 06:07:28;;;;;;;5.83;5.23;;;18.40;99.90;;;;;;6182874;23;20460;-91
2023/07/05 07:25:26;;;;;;;11.23;9.23;;;;;;;;;;6099037;23;20440;-91
2023/07/05 07:27:58;;;;;;;14.03;8.50;;;20.50;99.90;;;;;;6185510;23;20381;-92
2023/07/05 07:30:28;;;;;;;11.97;9.10;;;20.80;1.00;;;;;;6185398;23;20388;-93
2023/07/05 07:33:04;;;;;;;16.00;8.93;;;20.80;1.00;;;;;;6184567;23;20443;-90
2023/07/05 07:35:31;;;;;;;9.60;7.93;;;;;;;;;;6181962;23;20435;-89
2023/07/05 07:38:01;;;;;;;11.90;9.83;;;21.50;1.00;;;;;;6183671;23;20408;-90
2023/07/05 07:40:28;;;;;;;16.13;9.77;;;;;;;;;;6181281;23;20424;-89
2023/07/05 07:42:57;;;;;;;10.50;8.40;;;21.20;99.90;;;;;;6165685;23;20475;-88
2023/07/05 07:45:24;;;;;;;10.70;8.90;;;;;;;;;;6169003;23;20487;-89
2023/07/05 07:47:53;;;;;;;14.40;9.17;;;;;;;;;;6164536;23;20404;-88
2023/07/05 07:50:21;;;;;;;11.90;9.20;;;;;;;;;;6168287;23;20452;-88
2023/07/05 07:52:49;;;;;;;9.93;8.93;;;;;;;;;;6173292;23;20412;-90
2023/07/05 07:55:16;;;;;;;13.60;10.77;;;;;;;;;;6184238;23;20428;-90
2023/07/05 07:57:55;;;;;;;17.87;11.03;;;21.40;15.90;;;;;;6184420;23;20395;-90
2023/07/05 08:00:31;;;;;;;11.97;10.57;;;21.50;99.90;;;;;;6178145;23;20400;-90
2023/07/05 08:02:58;;;;;;;14.00;11.10;;;;;;;;;;6179871;23;20507;-89
2023/07/05 08:05:26;;;;;;;11.97;10.47;;;;;;;;;;6177464;23;20424;-90
2023/07/05 08:07:54;;;;;;;15.37;11.13;;;;;;;;;;6177878;23;20957;-89
2023/07/05 08:10:32;;;;;;;14.13;11.50;;;21.60;99.90;;;;;;6170624;23;20420;-89
2023/07/05 08:12:59;;;;;;;15.30;13.03;;;21.60;1.00;;;;;;6164327;23;20412;-89
2023/07/05 08:15:31;;;;;;;14.10;10.90;;;21.60;1.00;;;;;;6164922;23;20957;-89
2023/07/05 08:17:58;;;;;;;14.47;10.20;;;21.60;1.00;;;;;;6164509;23;20743;-90
2023/07/05 08:20:25;;;;;;;16.60;12.53;;;21.60;1.00;;;;;;6164782;23;20409;-90
2023/07/05 08:22:52;;;;;;;13.43;12.03;;;21.60;1.00;;;;;;6163769;23;20522;-90
2023/07/05 08:25:19;;;;;;;14.60;12.80;;;21.50;99.90;;;;;;6163928;23;20462;-90
2023/07/05 08:27:46;;;;;;;16.00;12.63;;;21.50;99.90;;;;;;6163844;23;20415;-90
2023/07/05 08:30:13;;;;;;;15.67;12.53;;;21.40;99.90;;;;;;6164575;23;20420;-90
2023/07/05 08:32:42;;;;;;;17.03;12.27;;;21.40;99.90;;;;;;6165981;23;20432;-90
2023/07/05 08:35:10;;;;;;;14.60;12.80;;;21.40;99.90;;;;;;6163556;23;20483;-89
2023/07/05 08:37:39;;;;;;;17.23;12.37;;;21.30;99.90;;;;;;6173787;23;20435;-91
2023/07/05 08:40:08;;;;;;;17.57;11.63;;;21.40;1.00;;;;;;6185149;23;20407;-90
2023/07/05 08:42:48;;;;;;;18.03;14.90;;;21.00;26.90;;;;;;6184016;23;20455;-90
2023/07/05 08:45:23;;;;;;;20.90;14.43;;;21.20;1.00;;;;;;6181277;23;20443;-88
2023/07/05 08:47:53;;;;;;;17.03;13.03;;;21.30;1.00;;;;;;6180613;23;20411;-89
2023/07/05 08:50:27;;;;;;;19.00;14.77;;;21.20;1.00;;;;;;6184340;23;20400;-92
2023/07/05 08:53:02;;;;;;;14.63;12.83;;;21.30;1.00;;;;;;6184375;23;20409;-91
2023/07/05 08:55:55;;;;;;;14.07;12.57;;;21.30;1.00;;;;;;6183011;23;20442;-91
2023/07/05 08:58:26;;;;;;;16.00;12.13;;;21.30;1.00;;;;;;6181137;23;20405;-89
2023/07/05 09:00:58;;;;;;;17.53;11.80;;;21.20;1.00;;;;;;6177063;23;20427;-90
2023/07/05 09:03:28;;;;;;;13.20;10.80;;;21.20;1.00;;;;;;6173439;23;20427;-90
2023/07/05 09:06:10;;;;;;;14.93;11.57;;;21.30;1.00;;;;;;6173875;23;20420;-90
2023/07/05 09:08:48;;;;;;;14.93;10.70;;;21.40;1.00;;;;;;6167475;23;20439;-89
2023/07/05 09:11:25;;;;;;;12.43;10.03;;;21.50;1.00;;;;;;6165101;23;20402;-90
2023/07/05 09:14:03;;;;;;;13.20;10.00;;;21.90;1.00;;;;;;6179270;23;20435;-88
2023/07/05 09:16:39;;;;;;;11.40;8.93;;;21.60;35.60;;;;;;6171765;23;20420;-89
2023/07/05 09:19:28;;;;;;;11.80;9.87;;;21.60;1.00;;;;;;6182253;23;20407;-89
2023/07/05 09:22:01;;;;;;;15.83;10.10;;;21.80;1.00;;;;;;6171177;23;20436;-89
2023/07/05 09:24:32;;;;;;;33.50;17.90;;;21.70;1.00;;;;;;6168956;23;20511;-88
2023/07/05 09:27:04;;;;;;;12.57;9.60;;;21.80;1.00;;;;;;6169505;23;20399;-89
2023/07/05 09:29:35;;;;;;;10.13;9.10;;;21.90;1.00;;;;;;6167712;23;20393;-90
2023/07/05 09:32:10;;;;;;;16.70;10.10;;;21.80;1.00;;;;;;6169643;23;20415;-89
2023/07/05 09:34:43;;;;;;;13.57;10.67;;;21.80;1.00;;;;;;6169279;23;20432;-88
2023/07/05 12:03:43;;;;;;;7.33;5.50;;;23.70;1.00;;;;;;6029973;23;20447;-93
2023/07/05 12:12:51;;;;;;;4.40;3.30;;;;;;;;;;6116081;23;20581;-89
2023/07/05 12:15:18;;;;;;;5.77;4.27;;;;;;;;;;6165181;23;20496;-89
2023/07/05 12:17:46;;;;;;;4.80;3.73;;;23.70;1.00;;;;;;6164954;23;20436;-90
2023/07/05 12:20:40;;;;;;;6.73;3.23;;;23.70;1.00;;;;;;6166507;23;20491;-89
2023/07/05 12:23:12;;;;;;;3.90;2.90;;;22.60;1.00;;;;;;6135079;23;20440;-87
2023/07/05 12:25:39;;;;;;;4.97;3.17;;;23.40;1.00;;;;;;6155838;23;20385;-87
2023/07/05 12:28:13;;;;;;;4.50;3.03;;;23.70;1.00;;;;;;6155323;23;20405;-90
2023/07/05 12:30:40;;;;;;;4.40;3.30;;;23.90;99.90;;;;;;6145012;23;20369;-89
2023/07/05 12:33:21;;;;;;;3.90;3.60;;;24.00;1.00;;;;;;6154885;23;20417;-87
2023/07/05 12:36:08;;;;;;;7.27;3.47;;;23.60;96.30;;;;;;6155114;23;20405;-88
2023/07/05 12:38:35;;;;;;;3.13;2.77;;;24.20;27.00;;;;;;6155160;23;20408;-87
2023/07/05 12:41:03;;;;;;;9.10;3.33;;;23.90;1.00;;;;;;6154700;23;20420;-87
2023/07/05 12:43:32;;;;;;;3.30;2.70;;;24.00;1.00;;;;;;6155239;23;20437;-88
2023/07/05 12:46:07;;;;;;;4.80;2.10;;;23.90;1.00;;;;;;6155224;23;20413;-88
2023/07/05 12:48:34;;;;;;;5.17;3.37;;;23.80;1.00;;;;;;6154613;23;20397;-89
2023/07/05 12:51:07;;;;;;;5.63;3.23;;;23.70;1.00;;;;;;6153661;23;20457;-88
2023/07/05 12:53:34;;;;;;;4.00;3.00;;;23.70;1.00;;;;;;6154308;23;20409;-89
2023/07/05 12:56:06;;;;;;;3.33;2.30;;;23.80;1.00;;;;;;6148346;23;20437;-90
2023/07/05 12:58:33;;;;;;;4.00;2.47;;;23.80;1.00;;;;;;6148240;23;20437;-88
2023/07/05 13:01:01;;;;;;;16.03;13.90;;;24.00;1.00;;;;;;6146732;23;20433;-89
2023/07/05 13:03:31;;;;;;;3.10;2.80;;;23.90;1.00;;;;;;6149129;23;20427;-89
2023/07/05 13:05:58;;;;;;;2.70;2.13;;;23.80;1.00;;;;;;6153184;23;20448;-89
2023/07/05 13:08:29;;;;;;;4.97;2.47;;;23.80;1.00;;;;;;6146997;23;20452;-89
2023/07/05 13:10:57;;;;;;;2.67;2.47;;;24.10;46.90;;;;;;6144151;23;20397;-88
2023/07/05 13:13:33;;;;;;;2.00;1.80;;;23.80;1.00;;;;;;6140273;23;20532;-89
2023/07/05 13:16:19;;;;;;;3.20;2.30;;;23.90;1.00;;;;;;6153633;23;20448;-88
2023/07/05 13:18:57;;;;;;;3.57;2.10;;;24.00;1.00;;;;;;6154104;23;20366;-89
2023/07/05 13:21:24;;;;;;;3.00;2.80;;;;;;;;;;6142150;23;20421;-89
2023/07/05 13:23:52;;;;;;;5.77;3.03;;;24.20;1.00;;;;;;6135622;23;20456;-89
2023/07/05 13:26:27;;;;;;;4.67;2.90;;;24.20;1.00;;;;;;6136275;23;20407;-89
2023/07/05 13:28:54;;;;;;;6.37;3.07;;;24.00;1.00;;;;;;6143276;23;20393;-89
2023/07/05 13:31:23;;;;;;;3.17;2.80;;;23.90;1.00;;;;;;6137034;23;20460;-89
2023/07/05 13:33:54;;;;;;;5.43;2.03;;;23.60;1.00;;;;;;6137778;23;20409;-89
2023/07/05 13:36:21;;;;;;;4.80;2.80;;;23.60;1.00;;;;;;6142029;23;20397;-89
2023/07/05 13:38:48;;;;;;;3.93;2.63;;;23.40;1.00;;;;;;6136742;23;20863;-88
2023/07/05 13:41:25;;;;;;;3.73;2.13;;;23.30;1.00;;;;;;6136395;23;20495;-89
2023/07/05 13:43:51;;;;;;;5.30;3.33;;;23.20;1.00;;;;;;6136714;23;20421;-90
2023/07/05 13:46:18;;;;;;;3.57;2.63;;;23.00;1.00;;;;;;6132480;23;20491;-89
2023/07/05 13:48:45;;;;;;;4.37;2.70;;;22.80;1.00;;;;;;6132200;23;20970;-90
2023/07/05 13:51:24;;;;;;;3.30;2.80;;;22.90;1.00;;;;;;6131001;23;20436;-89
2023/07/05 13:53:50;;;;;;;3.40;2.67;;;23.30;1.00;;;;;;6131403;23;20953;-90
2023/07/05 13:56:19;;;;;;;3.30;2.53;;;23.20;1.00;;;;;;6133573;23;20867;-88
2023/07/05 13:58:45;;;;;;;3.33;3.03;;;23.30;1.00;;;;;;6132028;23;20447;-89
2023/07/05 14:01:16;;;;;;;3.60;3.30;;;23.40;1.00;;;;;;6132203;23;20495;-89
2023/07/05 14:03:43;;;;;;;4.73;3.60;;;;;;;;;;6135590;23;20431;-89
2023/07/05 14:06:14;;;;;;;3.27;2.97;;;23.50;1.00;;;;;;6132062;23;20424;-89
2023/07/05 14:08:41;;;;;;;6.13;3.73;;;23.50;1.00;;;;;;6136020;23;20504;-89
2023/07/05 14:11:15;;;;;;;4.23;3.83;;;23.60;1.00;;;;;;6152914;23;20428;-89
2023/07/05 14:13:43;;;;;;;7.60;4.23;;;23.70;1.00;;;;;;6150906;23;20413;-89
2023/07/05 14:16:13;;;;;;;4.70;4.30;;;23.70;99.90;;;;;;6136281;23;20422;-89
2023/07/05 14:18:40;;;;;;;5.47;3.43;;;23.80;99.90;;;;;;6134530;23;20405;-89
2023/07/05 14:21:18;;;;;;;3.20;2.90;;;23.80;99.90;;;;;;6133157;23;20460;-90
2023/07/05 14:23:45;;;;;;;3.83;3.53;;;23.80;99.90;;;;;;6142055;23;20429;-90
2023/07/05 14:26:14;;;;;;;3.37;3.07;;;24.00;1.00;;;;;;6142454;23;20456;-90
2023/07/05 14:28:43;;;;;;;5.50;3.17;;;24.10;1.00;;;;;;6146818;23;20413;-89
2023/07/05 14:31:12;;;;;;;4.40;2.93;;;24.10;1.00;;;;;;6153404;23;20413;-89
2023/07/05 14:33:39;;;;;;;3.87;3.50;;;24.20;1.00;;;;;;6154020;23;20452;-89
2023/07/05 14:36:08;;;;;;;5.80;3.87;;;24.20;99.90;;;;;;6153772;23;20413;-88
2023/07/05 14:38:35;;;;;;;4.97;3.73;;;24.10;99.90;;;;;;6154398;23;20386;-89
2023/07/05 14:41:02;;;;;;;5.30;3.37;;;24.10;99.90;;;;;;6153947;23;20417;-88
2023/07/05 14:43:30;;;;;;;6.50;3.30;;;24.20;99.90;;;;;;6153588;23;20448;-89
2023/07/05 14:45:58;;;;;;;5.43;2.93;;;24.20;99.90;;;;;;6153911;23;20420;-87
2023/07/05 14:48:25;;;;;;;3.40;2.67;;;24.30;1.00;;;;;;6154091;23;20405;-87
2023/07/05 14:50:53;;;;;;;3.23;2.80;;;24.40;1.00;;;;;;6153901;23;20504;-89
2023/07/05 14:53:27;;;;;;;3.90;3.13;;;24.30;99.90;;;;;;6153853;23;20405;-89
2023/07/05 14:55:54;;;;;;;5.20;3.30;;;24.30;1.00;;;;;;6153324;23;20398;-91
2023/07/05 14:58:22;;;;;;;7.73;3.80;;;24.20;99.90;;;;;;6153949;23;20413;-88
2023/07/05 15:00:50;;;;;;;4.17;2.47;;;24.50;1.00;;;;;;6149963;23;20397;-89
2023/07/05 15:03:26;;;;;;;3.77;2.50;;;24.30;99.90;;;;;;6141856;23;20743;-89
2023/07/05 15:05:53;;;;;;;3.53;2.63;;;24.40;99.90;;;;;;6152632;23;20380;-89
2023/07/05 15:08:20;;;;;;;4.50;3.17;;;24.50;1.00;;;;;;6145057;23;20451;-90
2023/07/05 15:10:48;;;;;;;3.30;3.00;;;24.10;1.00;;;;;;6146340;23;20413;-89
2023/07/05 15:13:15;;;;;;;10.40;3.00;;;;;;;;;;6147322;23;20424;-90
2023/07/05 15:15:44;;;;;;;3.47;2.70;;;24.20;99.90;;;;;;6150802;23;20419;-89
2023/07/05 15:18:11;;;;;;;4.53;3.17;;;23.80;99.90;;;;;;6152836;23;20420;-89
2023/07/05 15:20:39;;;;;;;5.40;2.80;;;23.90;99.90;;;;;;6151510;23;20440;-88
2023/07/05 15:23:09;;;;;;;3.33;2.67;;;23.90;99.90;;;;;;6151881;23;20397;-89
2023/07/05 15:25:36;;;;;;;4.87;2.97;;;;;;;;;;6153555;23;20447;-89
2023/07/05 15:28:04;;;;;;;3.13;2.83;;;24.00;99.90;;;;;;6152876;23;20398;-90
2023/07/05 15:30:31;;;;;;;2.73;2.53;;;24.00;99.90;;;;;;6145639;23;20448;-89
2023/07/05 15:32:59;;;;;;;2.70;2.50;;;24.20;99.90;;;;;;6146785;23;20449;-89
2023/07/05 15:35:26;;;;;;;3.10;2.67;;;23.80;99.90;;;;;;6143682;23;20397;-89
2023/07/05 15:37:55;;;;;;;3.93;2.73;;;23.90;99.90;;;;;;6142785;23;20413;-89
2023/07/05 15:40:23;;;;;;;4.40;2.33;;;24.10;1.00;;;;;;6142987;23;20413;-89
2023/07/05 15:42:52;;;;;;;2.73;2.30;;;23.70;99.90;;;;;;6142977;23;20429;-88
2023/07/05 15:45:23;;;;;;;2.90;2.33;;;23.60;99.90;;;;;;6148393;23;20440;-89
2023/07/05 15:47:54;;;;;;;3.60;2.10;;;23.50;99.90;;;;;;6147015;23;20429;-90
2023/07/05 15:50:22;;;;;;;2.60;2.10;;;23.50;99.90;;;;;;6146384;23;20428;-89
2023/07/05 15:52:50;;;;;;;4.57;2.17;;;;;;;;;;6141395;23;20420;-90
2023/07/05 15:55:19;;;;;;;2.47;2.27;;;23.70;99.90;;;;;;6143301;23;20444;-90
2023/07/05 15:57:46;;;;;;;2.13;1.80;;;23.50;1.00;;;;;;6149849;23;20432;-89
2023/07/05 16:00:23;;;;;;;2.03;1.73;;;23.90;99.90;;;;;;6153180;23;20409;-88
2023/07/05 16:02:57;;;;;;;1.93;1.40;;;23.90;99.90;;;;;;6153601;23;20413;-89
2023/07/05 16:05:24;;;;;;;2.90;2.30;;;23.80;99.90;;;;;;6153497;23;20420;-89
2023/07/05 16:07:51;;;;;;;7.73;1.60;;;23.80;99.90;;;;;;6146017;23;20437;-89
2023/07/05 16:10:19;;;;;;;2.83;2.00;;;23.80;99.90;;;;;;6141323;23;20416;-89
2023/07/05 16:12:48;;;;;;;7.20;1.57;;;23.50;1.00;;;;;;6144214;23;20444;-89
2023/07/05 16:15:16;;;;;;;4.47;1.60;;;23.60;99.90;;;;;;6144939;23;20492;-89
2023/07/05 16:17:49;;;;;;;3.10;2.80;;;23.40;99.90;;;;;;6141237;23;20470;-89
2023/07/05 16:20:16;;;;;;;5.00;2.53;;;23.40;99.90;;;;;;6140285;23;20393;-89
2023/07/05 16:22:44;;;;;;;2.47;2.27;;;;;;;;;;6139771;23;20421;-89
2023/07/05 16:25:10;;;;;;;1.93;1.50;;;23.40;99.90;;;;;;6138322;23;20527;-89
2023/07/05 16:27:39;;;;;;;3.30;1.30;;;23.40;99.90;;;;;;6141198;23;20416;-89
2023/07/05 16:30:07;;;;;;;1.50;1.10;;;23.40;99.90;;;;;;6143388;23;20405;-89
2023/07/05 16:32:35;;;;;;;2.20;2.00;;;23.40;99.90;;;;;;6141547;23;20432;-89
2023/07/05 16:35:02;;;;;;;1.77;1.67;;;23.40;99.90;;;;;;6142986;23;20417;-89
2023/07/05 16:37:29;;;;;;;3.57;2.90;;;23.30;99.90;;;;;;6149863;23;20436;-89
2023/07/05 16:39:58;;;;;;;2.43;1.70;;;23.20;99.90;;;;;;6145620;23;20412;-89
2023/07/05 16:42:25;;;;;;;1.70;1.60;;;23.10;99.90;;;;;;6150270;23;20475;-89
2023/07/05 16:44:53;;;;;;;4.67;2.50;;;22.90;99.90;;;;;;6153665;23;20448;-89
2023/07/05 16:47:20;;;;;;;2.93;2.23;;;22.70;99.90;;;;;;6153175;23;20394;-89
2023/07/05 16:49:47;;;;;;;6.67;5.40;;;22.90;99.90;;;;;;6154361;23;20398;-88
2023/07/05 16:52:14;;;;;;;5.30;3.90;;;;;;;;;;6154711;23;20425;-87
2023/07/05 16:54:41;;;;;;;4.10;2.20;;;22.90;99.90;;;;;;6154378;23;20409;-88
2023/07/05 16:57:08;;;;;;;6.03;4.10;;;22.70;99.90;;;;;;6153783;23;20401;-89
2023/07/05 16:59:36;;;;;;;4.17;2.30;;;23.00;1.00;;;;;;6154656;23;20401;-87
2023/07/05 17:02:05;;;;;;;2.70;1.97;;;22.70;99.90;;;;;;6151532;23;20429;-90
2023/07/05 17:04:32;;;;;;;7.63;3.00;;;22.60;99.90;;;;;;6147299;23;20495;-89
2023/07/05 17:06:59;;;;;;;3.10;2.30;;;22.60;99.90;;;;;;6143900;23;20417;-89
2023/07/05 17:09:26;;;;;;;1.77;1.30;;;22.60;1.00;;;;;;6149473;23;20401;-88
2023/07/05 17:11:53;;;;;;;2.87;2.63;;;22.70;1.00;;;;;;6152872;23;20197;-87
2023/07/05 17:14:20;;;;;;;4.70;1.90;;;22.70;1.00;;;;;;6154720;23;20401;-89
2023/07/05 17:16:49;;;;;;;4.20;3.43;;;22.40;99.90;;;;;;6155144;23;20397;-88
2023/07/05 17:19:18;;;;;;;3.93;2.20;;;22.60;1.00;;;;;;6155296;23;20398;-87
2023/07/05 17:21:45;;;;;;;1.67;1.57;;;22.70;1.00;;;;;;6154995;23;20440;-87
2023/07/05 17:24:12;;;;;;;3.50;1.77;;;22.00;1.00;;;;;;6155082;23;20452;-88
2023/07/05 17:26:39;;;;;;;2.87;2.63;;;22.40;99.90;;;;;;6142825;23;20417;-89